REAPERS weather

Reapers Field
Albion, Arkansas, United States

Public forecast

Using degrees Fahrenheit for public forecast. Weather courtesy of forecast.io.

METAR (pilot weather report)

Closest report is Searcy Municipal Airport, 7.7 nm (14.3 km) SSE. Retrieved 2019/07/17 11:34 UTC (3 minutes ago):

KSRC 171134Z AUTO 21003KT 4SM HZ OVC010 26/ A3000 RMK AO2

TAF (pilot weather forecast)

Closest forecast is Little Rock Air Force Base, 29.9 nm (55.4 km) SW. Retrieved 2019/07/17 07:03 UTC (5 hours ago):

TAF TAF KLRF 170700Z 1707/1813 VRB06KT 8000 BR BKN002 BKN040 QNH2998INS BECMG 1708/1709 VRB06KT 8000 BR BKN007 BKN030 WS020/23030KT QNH2998INS BECMG 1710/1711 VRB06KT 9999 NSW FEW030 WS020/23030KT QNH3001INS BECMG 1714/1715 23010G15KT 9999 FEW050 QNH2994INS BECMG 1801/1802 VRB06KT 9999 SCT050 QNH2995INS TX34/1720Z TN25/1708Z